createdAt,value
2018-03-26T00:00:47.715Z,6
2018-03-26T00:01:50.445Z,5.9
2018-03-26T00:02:53.164Z,5.9
2018-03-26T00:03:55.600Z,6
2018-03-26T00:04:58.321Z,6
2018-03-26T00:06:01.036Z,6.1
2018-03-26T00:07:03.475Z,6.1
2018-03-26T00:08:05.901Z,6.1
2018-03-26T00:09:08.620Z,6.1
2018-03-26T00:10:11.331Z,6.1
2018-03-26T00:11:13.755Z,6.1
2018-03-26T00:12:16.185Z,6.1
2018-03-26T00:13:18.611Z,6.1
2018-03-26T00:14:21.035Z,6.1
2018-03-26T00:15:23.463Z,6.1
2018-03-26T00:16:25.894Z,6.1
2018-03-26T00:17:28.323Z,6.1
2018-03-26T00:18:31.036Z,6.1
2018-03-26T00:19:33.468Z,6.1
2018-03-26T00:20:36.193Z,6.1
2018-03-26T00:21:38.627Z,6.1
2018-03-26T00:22:41.367Z,6.1
2018-03-26T00:23:43.797Z,6.1
2018-03-26T00:24:46.227Z,6
2018-03-26T00:25:48.944Z,6.1
2018-03-26T00:26:51.379Z,6
2018-03-26T00:27:53.809Z,6.1
2018-03-26T00:28:56.524Z,6.1
2018-03-26T00:29:59.256Z,6.1
2018-03-26T00:31:01.682Z,6.1
2018-03-26T00:32:04.109Z,6.1
2018-03-26T00:33:06.540Z,6.1
2018-03-26T00:34:08.977Z,6.1
2018-03-26T00:35:11.400Z,6.1
2018-03-26T00:36:13.837Z,6.1
2018-03-26T00:37:16.263Z,6.1
2018-03-26T00:38:18.699Z,6.1
2018-03-26T00:39:21.406Z,6.1
2018-03-26T00:40:23.834Z,6.1
2018-03-26T00:41:26.263Z,6.1
2018-03-26T00:42:28.691Z,6.1
2018-03-26T00:43:31.694Z,6
2018-03-26T00:44:34.121Z,6.1
2018-03-26T00:45:36.551Z,6.1
2018-03-26T00:46:38.999Z,6
2018-03-26T00:47:41.424Z,6.1
2018-03-26T00:48:44.136Z,6
2018-03-26T00:49:46.567Z,6
2018-03-26T00:50:49.291Z,6
2018-03-26T00:51:51.723Z,6.1
2018-03-26T00:52:54.163Z,6.1
2018-03-26T00:53:56.579Z,6.1
2018-03-26T00:54:59.021Z,6.1
2018-03-26T00:56:01.748Z,6.1
2018-03-26T00:57:04.178Z,6.1
2018-03-26T00:58:06.616Z,6.1
2018-03-26T00:59:09.332Z,6
2018-03-26T01:00:12.047Z,6
2018-03-26T01:01:14.799Z,6
2018-03-26T01:02:17.231Z,6
2018-03-26T01:03:19.941Z,6
2018-03-26T01:04:22.386Z,6
2018-03-26T01:05:24.803Z,6.1
2018-03-26T01:06:27.237Z,6
2018-03-26T01:07:29.666Z,6
2018-03-26T01:08:32.094Z,6
2018-03-26T01:09:34.517Z,6
2018-03-26T01:10:37.241Z,6
2018-03-26T01:11:39.664Z,6.1
2018-03-26T01:12:42.405Z,6.1
2018-03-26T01:13:44.836Z,6.1
2018-03-26T01:14:47.321Z,6
2018-03-26T01:15:50.018Z,6
2018-03-26T01:16:52.446Z,6
2018-03-26T01:17:54.874Z,6
2018-03-26T01:18:57.307Z,6
2018-03-26T01:19:59.729Z,6
2018-03-26T01:21:02.162Z,6
2018-03-26T01:22:04.595Z,6
2018-03-26T01:23:07.308Z,6
2018-03-26T01:24:09.738Z,6
2018-03-26T01:25:12.170Z,6
2018-03-26T01:26:14.873Z,6
2018-03-26T01:27:17.321Z,6
2018-03-26T01:28:19.745Z,6
2018-03-26T01:29:22.460Z,6
2018-03-26T01:30:24.892Z,6
2018-03-26T01:31:27.317Z,6
2018-03-26T01:32:29.754Z,5.9
2018-03-26T01:33:32.186Z,6
2018-03-26T01:34:34.902Z,6
2018-03-26T01:35:37.332Z,6
2018-03-26T01:36:40.033Z,6
2018-03-26T01:37:42.475Z,6
2018-03-26T01:38:44.900Z,6
2018-03-26T01:39:47.631Z,5.9
2018-03-26T01:40:50.062Z,5.9
2018-03-26T01:41:52.493Z,5.8
2018-03-26T01:42:54.924Z,5.8
2018-03-26T01:43:57.363Z,5.8
2018-03-26T01:45:00.068Z,5.8
2018-03-26T01:46:02.498Z,5.8
2018-03-26T01:47:04.924Z,5.8
2018-03-26T01:48:07.664Z,5.8
2018-03-26T01:49:10.104Z,5.7
2018-03-26T01:50:12.538Z,5.7
2018-03-26T01:51:14.962Z,5.7
2018-03-26T01:52:17.392Z,5.8
2018-03-26T01:53:20.101Z,5.8
2018-03-26T01:54:22.536Z,5.7
2018-03-26T01:55:25.251Z,5.7
2018-03-26T01:56:27.976Z,5.7
2018-03-26T01:57:30.401Z,5.8
2018-03-26T01:58:32.842Z,5.8
2018-03-26T01:59:35.263Z,5.8
2018-03-26T02:00:37.687Z,5.8
2018-03-26T02:01:40.703Z,5.8
2018-03-26T02:02:43.136Z,5.8
2018-03-26T02:03:45.568Z,5.8
2018-03-26T02:04:48.046Z,5.8
2018-03-26T02:05:50.702Z,5.8
2018-03-26T02:06:53.129Z,5.8
2018-03-26T02:07:55.851Z,5.8
2018-03-26T02:08:58.283Z,5.8
2018-03-26T02:10:00.730Z,5.8
2018-03-26T02:11:03.143Z,5.8
2018-03-26T02:12:05.887Z,5.9
2018-03-26T02:13:08.604Z,5.9
2018-03-26T02:14:11.023Z,5.9
2018-03-26T02:15:13.454Z,5.9
2018-03-26T02:16:15.883Z,5.9
2018-03-26T02:17:18.307Z,5.9
2018-03-26T02:18:21.035Z,5.9
2018-03-26T02:19:23.753Z,5.9
2018-03-26T02:20:26.181Z,5.9
2018-03-26T02:21:28.612Z,6
2018-03-26T02:22:31.330Z,6
2018-03-26T02:23:33.756Z,6
2018-03-26T02:24:36.197Z,6
2018-03-26T02:25:38.619Z,6
2018-03-26T02:26:41.113Z,6
2018-03-26T02:27:43.505Z,6
2018-03-26T02:28:46.505Z,6
2018-03-26T02:29:49.212Z,6
2018-03-26T02:30:51.649Z,6
2018-03-26T02:31:54.066Z,6
2018-03-26T02:32:56.525Z,6
2018-03-26T02:33:59.541Z,6
2018-03-26T02:35:01.965Z,6
2018-03-26T02:36:04.380Z,6
2018-03-26T02:37:07.102Z,5.9
2018-03-26T02:38:09.539Z,6
2018-03-26T02:39:11.971Z,6
2018-03-26T02:40:14.396Z,6
2018-03-26T02:41:16.830Z,6
2018-03-26T02:42:19.565Z,6
2018-03-26T02:43:22.873Z,5.9
2018-03-26T02:44:25.605Z,5.9
2018-03-26T02:45:28.016Z,6
2018-03-26T02:46:30.745Z,6
2018-03-26T02:47:33.172Z,6
2018-03-26T02:48:35.606Z,6
2018-03-26T02:49:38.032Z,5.9
2018-03-26T02:50:40.492Z,5.9
2018-03-26T02:51:42.895Z,5.9
2018-03-26T02:52:45.325Z,5.9
2018-03-26T02:53:47.769Z,5.9
2018-03-26T02:54:50.191Z,5.9
2018-03-26T02:55:52.621Z,5.9
2018-03-26T02:56:55.042Z,5.9
2018-03-26T02:57:57.482Z,5.9
2018-03-26T02:58:59.910Z,5.9
2018-03-26T03:00:02.924Z,5.9
2018-03-26T03:01:05.646Z,5.9
2018-03-26T03:02:08.365Z,5.9
2018-03-26T03:03:10.794Z,5.9
2018-03-26T03:04:13.838Z,5.9
2018-03-26T03:05:16.264Z,5.9
2018-03-26T03:06:18.712Z,5.9
2018-03-26T03:07:21.153Z,5.9
2018-03-26T03:08:23.590Z,5.9
2018-03-26T03:09:26.585Z,5.9
2018-03-26T03:10:29.013Z,5.8
2018-03-26T03:11:31.728Z,5.8
2018-03-26T03:12:34.161Z,5.8
2018-03-26T03:13:36.588Z,5.8
2018-03-26T03:14:39.002Z,5.9
2018-03-26T03:15:41.728Z,5.9
2018-03-26T03:16:44.162Z,5.9
2018-03-26T03:17:46.589Z,5.9
2018-03-26T03:18:49.026Z,5.9
2018-03-26T03:19:51.453Z,5.9
2018-03-26T03:20:53.882Z,5.9
2018-03-26T03:21:56.304Z,5.9
2018-03-26T03:22:59.032Z,5.9
2018-03-26T03:24:01.457Z,5.9
2018-03-26T03:25:03.892Z,5.9
2018-03-26T03:26:06.311Z,5.9
2018-03-26T03:27:08.748Z,5.9
2018-03-26T03:28:11.484Z,5.9
2018-03-26T03:29:13.911Z,5.9
2018-03-26T03:30:16.343Z,5.9
2018-03-26T03:31:19.074Z,5.9
2018-03-26T03:32:21.509Z,5.9
2018-03-26T03:33:23.932Z,5.9
2018-03-26T03:34:26.370Z,5.9
2018-03-26T03:35:29.156Z,5.9
2018-03-26T03:36:31.578Z,5.9
2018-03-26T03:37:34.292Z,5.9
2018-03-26T03:38:36.727Z,5.8
2018-03-26T03:39:39.143Z,5.9
2018-03-26T03:40:41.584Z,5.9
2018-03-26T03:41:44.292Z,5.9
2018-03-26T03:42:46.728Z,5.9
2018-03-26T03:43:49.164Z,5.9
2018-03-26T03:44:52.194Z,5.9
2018-03-26T03:45:55.203Z,5.9
2018-03-26T03:46:57.638Z,5.9
2018-03-26T03:48:00.072Z,5.9
2018-03-26T03:49:02.500Z,5.9
2018-03-26T03:50:04.949Z,5.8
2018-03-26T03:51:07.366Z,5.9
2018-03-26T03:52:09.809Z,5.9
2018-03-26T03:53:12.821Z,5.9
2018-03-26T03:54:15.554Z,5.9
2018-03-26T03:55:17.983Z,5.8
2018-03-26T03:56:20.410Z,5.9
2018-03-26T03:57:23.115Z,5.9
2018-03-26T03:58:25.556Z,5.9
2018-03-26T03:59:28.274Z,5.9
2018-03-26T04:00:30.710Z,5.9
2018-03-26T04:01:33.142Z,5.8
2018-03-26T04:02:35.581Z,5.8
2018-03-26T04:03:38.015Z,5.7
2018-03-26T04:04:40.446Z,5.7
2018-03-26T04:05:42.862Z,5.7
2018-03-26T04:06:45.296Z,5.7
2018-03-26T04:07:47.720Z,5.7
2018-03-26T04:08:50.146Z,5.8
2018-03-26T04:09:52.868Z,5.8
2018-03-26T04:10:55.299Z,5.8
2018-03-26T04:11:57.730Z,5.8
2018-03-26T04:13:00.173Z,5.8
2018-03-26T04:14:02.931Z,5.8
2018-03-26T04:15:05.365Z,5.8
2018-03-26T04:16:07.791Z,5.7
2018-03-26T04:17:10.505Z,5.7
2018-03-26T04:18:12.937Z,5.7
2018-03-26T04:19:15.372Z,5.7
2018-03-26T04:20:17.801Z,5.7
2018-03-26T04:21:20.225Z,5.7
2018-03-26T04:22:22.651Z,5.6
2018-03-26T04:23:25.062Z,5.7
2018-03-26T04:24:27.509Z,5.7
2018-03-26T04:25:29.927Z,5.7
2018-03-26T04:26:32.363Z,5.7
2018-03-26T04:27:34.795Z,5.7
2018-03-26T04:28:37.535Z,5.6
2018-03-26T04:29:39.962Z,5.6
2018-03-26T04:30:42.394Z,5.6
2018-03-26T04:31:44.811Z,5.6
2018-03-26T04:32:47.239Z,5.6
2018-03-26T04:33:49.663Z,5.6
2018-03-26T04:34:52.099Z,5.5
2018-03-26T04:35:54.519Z,5.6
2018-03-26T04:36:56.943Z,5.6
2018-03-26T04:37:59.381Z,5.6
2018-03-26T04:39:01.809Z,5.7
2018-03-26T04:40:04.242Z,5.6
2018-03-26T04:41:06.672Z,5.5
2018-03-26T04:42:09.101Z,5.6
2018-03-26T04:43:11.523Z,5.5
2018-03-26T04:44:13.956Z,5.5
2018-03-26T04:45:16.666Z,5.5
2018-03-26T04:46:19.112Z,5.5
2018-03-26T04:47:21.538Z,5.4
2018-03-26T04:48:24.251Z,5.4
2018-03-26T04:49:26.676Z,5.4
2018-03-26T04:50:29.387Z,5.4
2018-03-26T04:51:31.810Z,5.4
2018-03-26T04:52:34.234Z,5.3
2018-03-26T04:53:36.669Z,5.3
2018-03-26T04:54:39.096Z,5.3
2018-03-26T04:55:41.827Z,5.3
2018-03-26T04:56:44.252Z,5.2
2018-03-26T04:57:46.683Z,5.2
2018-03-26T04:58:49.120Z,5.2
2018-03-26T04:59:51.544Z,5.2
2018-03-26T05:00:53.973Z,5.2
2018-03-26T05:01:56.676Z,5.2
2018-03-26T05:02:59.104Z,5.2
2018-03-26T05:04:01.835Z,5.2
2018-03-26T05:05:04.554Z,5.2
2018-03-26T05:06:07.265Z,5.2
2018-03-26T05:07:09.690Z,5.2
2018-03-26T05:08:12.404Z,5.2
2018-03-26T05:09:14.840Z,5.2
2018-03-26T05:10:17.847Z,5.2
2018-03-26T05:11:20.266Z,5.2
2018-03-26T05:12:22.705Z,5.3
2018-03-26T05:13:25.133Z,5.2
2018-03-26T05:14:27.614Z,5.2
2018-03-26T05:15:29.990Z,5.2
2018-03-26T05:16:32.421Z,5.2
2018-03-26T05:17:34.844Z,5.3
2018-03-26T05:18:37.275Z,5.2
2018-03-26T05:19:39.699Z,5.2
2018-03-26T05:20:42.137Z,5.2
2018-03-26T05:21:44.849Z,5.2
2018-03-26T05:22:47.344Z,5.2
2018-03-26T05:23:49.712Z,5.1
2018-03-26T05:24:52.149Z,5.1
2018-03-26T05:25:54.580Z,5
2018-03-26T05:26:57.007Z,5
2018-03-26T05:27:59.435Z,5
2018-03-26T05:29:01.867Z,5.1
2018-03-26T05:30:04.280Z,5.1
2018-03-26T05:31:06.723Z,5.1
2018-03-26T05:32:09.147Z,5
2018-03-26T05:33:11.864Z,5.1
2018-03-26T05:34:14.288Z,5.1
2018-03-26T05:35:16.729Z,5
2018-03-26T05:36:19.159Z,5
2018-03-26T05:37:21.585Z,5
2018-03-26T05:38:24.586Z,5
2018-03-26T05:39:27.007Z,4.9
2018-03-26T05:40:30.047Z,4.9
2018-03-26T05:41:33.085Z,4.9
2018-03-26T05:42:35.512Z,4.9
2018-03-26T05:43:37.940Z,4.9
2018-03-26T05:44:40.369Z,4.9
2018-03-26T05:45:42.798Z,5
2018-03-26T05:46:45.531Z,5
2018-03-26T05:47:47.959Z,5
2018-03-26T05:48:50.376Z,5
2018-03-26T05:49:52.814Z,5
2018-03-26T05:50:55.531Z,5
2018-03-26T05:51:57.968Z,4.9
2018-03-26T05:53:00.389Z,5
2018-03-26T05:54:02.808Z,4.8
2018-03-26T05:55:05.238Z,4.9
2018-03-26T05:56:07.681Z,4.9
2018-03-26T05:57:10.100Z,5
2018-03-26T05:58:12.828Z,4.9
2018-03-26T05:59:15.252Z,5
2018-03-26T06:00:17.682Z,5
2018-03-26T06:01:20.109Z,4.9
2018-03-26T06:02:22.536Z,4.9
2018-03-26T06:03:24.973Z,4.9
2018-03-26T06:04:27.400Z,4.9
2018-03-26T06:05:30.121Z,4.9
2018-03-26T06:06:33.125Z,5
2018-03-26T06:07:35.557Z,5
2018-03-26T06:08:37.987Z,4.8
2018-03-26T06:09:40.747Z,4.9
2018-03-26T06:10:43.453Z,4.9
2018-03-26T06:11:45.880Z,4.9
2018-03-26T06:12:48.891Z,4.9
2018-03-26T06:13:51.323Z,5
2018-03-26T06:14:53.747Z,5
2018-03-26T06:15:56.174Z,5
2018-03-26T06:16:58.606Z,5
2018-03-26T06:18:01.039Z,5
2018-03-26T06:19:03.513Z,5
2018-03-26T06:20:06.231Z,5.1
2018-03-26T06:21:08.962Z,5.1
2018-03-26T06:22:11.689Z,5
2018-03-26T06:23:14.114Z,5
2018-03-26T06:24:16.837Z,5
2018-03-26T06:25:19.578Z,5
2018-03-26T06:26:22.597Z,5
2018-03-26T06:27:25.034Z,5
2018-03-26T06:28:28.042Z,5
2018-03-26T06:29:30.739Z,5.1
2018-03-26T06:30:34.160Z,5
2018-03-26T06:31:36.512Z,4.9
2018-03-26T06:32:38.949Z,4.9
2018-03-26T06:33:41.373Z,4.9
2018-03-26T06:34:43.820Z,4.9
2018-03-26T06:35:46.529Z,4.9
2018-03-26T06:36:48.945Z,4.8
2018-03-26T06:37:51.378Z,4.8
2018-03-26T06:38:53.800Z,4.9
2018-03-26T06:39:56.232Z,4.9
2018-03-26T06:40:58.664Z,4.9
2018-03-26T06:42:01.392Z,4.9
2018-03-26T06:43:03.824Z,4.9
2018-03-26T06:44:06.367Z,4.8
2018-03-26T06:45:08.978Z,4.9
2018-03-26T06:46:11.419Z,4.9
2018-03-26T06:47:13.940Z,4.9
2018-03-26T06:48:16.284Z,4.8
2018-03-26T06:49:18.717Z,4.9
2018-03-26T06:50:21.145Z,4.8
2018-03-26T06:51:24.142Z,4.9
2018-03-26T06:52:26.577Z,4.9
2018-03-26T06:53:28.989Z,4.9
2018-03-26T06:54:31.418Z,4.8
2018-03-26T06:55:33.842Z,4.9
2018-03-26T06:56:36.272Z,4.9
2018-03-26T06:57:38.704Z,4.8
2018-03-26T06:58:41.126Z,4.9
2018-03-26T06:59:43.560Z,4.9
2018-03-26T07:00:45.984Z,4.9
2018-03-26T07:01:48.409Z,4.9
2018-03-26T07:02:50.852Z,4.9
2018-03-26T07:03:53.281Z,4.8
2018-03-26T07:04:55.703Z,4.8
2018-03-26T07:05:58.123Z,4.8
2018-03-26T07:07:00.560Z,4.8
2018-03-26T07:08:03.402Z,4.8
2018-03-26T07:09:06.875Z,4.9
2018-03-26T07:10:09.580Z,4.9
2018-03-26T07:11:12.004Z,4.9
2018-03-26T07:12:14.732Z,4.9
2018-03-26T07:13:17.153Z,4.8
2018-03-26T07:14:19.868Z,4.8
2018-03-26T07:15:22.872Z,4.7
2018-03-26T07:16:25.302Z,4.6
2018-03-26T07:17:27.742Z,4.6
2018-03-26T07:18:30.388Z,4.7
2018-03-26T07:19:32.828Z,4.8
2018-03-26T07:20:35.543Z,4.8
2018-03-26T07:21:38.035Z,4.8
2018-03-26T07:22:40.750Z,4.8
2018-03-26T07:23:43.184Z,4.8
2018-03-26T07:24:45.600Z,4.9
2018-03-26T07:25:48.035Z,4.7
2018-03-26T07:26:50.475Z,4.7
2018-03-26T07:27:52.904Z,4.7
2018-03-26T07:28:55.347Z,4.6
2018-03-26T07:29:57.755Z,4.6
2018-03-26T07:31:00.476Z,4.7
2018-03-26T07:32:02.905Z,4.6
2018-03-26T07:33:05.331Z,4.7
2018-03-26T07:34:07.774Z,4.8
2018-03-26T07:35:10.499Z,4.7
2018-03-26T07:36:12.913Z,4.7
2018-03-26T07:37:15.353Z,4.7
2018-03-26T07:38:17.785Z,4.7
2018-03-26T07:39:20.220Z,4.8
2018-03-26T07:40:22.937Z,4.8
2018-03-26T07:41:25.656Z,4.9
2018-03-26T07:42:28.087Z,4.9
2018-03-26T07:43:30.522Z,4.9
2018-03-26T07:44:32.946Z,5
2018-03-26T07:45:35.376Z,5
2018-03-26T07:46:37.797Z,5
2018-03-26T07:47:40.230Z,5.1
2018-03-26T07:48:42.670Z,5
2018-03-26T07:49:45.092Z,4.9
2018-03-26T07:50:47.508Z,4.9
2018-03-26T07:51:49.945Z,5
2018-03-26T07:52:52.671Z,4.8
2018-03-26T07:53:55.102Z,4.9
2018-03-26T07:54:57.817Z,4.9
2018-03-26T07:56:00.253Z,4.9
2018-03-26T07:57:03.027Z,4.9
2018-03-26T07:58:05.474Z,4.9
2018-03-26T07:59:07.903Z,4.8
2018-03-26T08:00:10.312Z,4.8
2018-03-26T08:01:13.039Z,5
2018-03-26T08:02:15.478Z,4.9
2018-03-26T08:03:18.192Z,5
2018-03-26T08:04:20.623Z,5
2018-03-26T08:05:23.058Z,5.2
2018-03-26T08:06:25.766Z,5.1
2018-03-26T08:07:28.202Z,4.8
2018-03-26T08:08:30.912Z,4.9
2018-03-26T08:09:33.355Z,5.1
2018-03-26T08:10:35.787Z,5
2018-03-26T08:11:38.496Z,5
2018-03-26T08:12:41.197Z,4.8
2018-03-26T08:13:43.627Z,4.9
2018-03-26T08:14:46.045Z,5
2018-03-26T08:15:48.770Z,4.9
2018-03-26T08:16:51.500Z,5.1
2018-03-26T08:17:53.906Z,5.2
2018-03-26T08:18:56.617Z,5
2018-03-26T08:19:59.102Z,5.1
2018-03-26T08:21:01.524Z,5
2018-03-26T08:22:03.968Z,5.1
2018-03-26T08:23:06.399Z,5.1
2018-03-26T08:24:08.811Z,5.1
2018-03-26T08:25:11.248Z,5.1
2018-03-26T08:26:13.681Z,5.2
2018-03-26T08:27:16.403Z,5.2
2018-03-26T08:28:18.834Z,5.1
2018-03-26T08:29:21.562Z,5.1
2018-03-26T08:30:23.996Z,5.2
2018-03-26T08:31:26.428Z,5
2018-03-26T08:32:28.860Z,4.9
2018-03-26T08:33:31.302Z,4.9
2018-03-26T08:34:33.720Z,4.9
2018-03-26T08:35:36.155Z,5.1
2018-03-26T08:36:38.578Z,5.1
2018-03-26T08:37:41.292Z,5.2
2018-03-26T08:38:43.720Z,5
2018-03-26T08:39:46.154Z,5
2018-03-26T08:40:48.579Z,5
2018-03-26T08:41:51.024Z,4.9
2018-03-26T08:42:53.460Z,5
2018-03-26T08:43:55.890Z,5
2018-03-26T08:44:58.335Z,5.2
2018-03-26T08:46:00.755Z,5.2
2018-03-26T08:47:03.175Z,5.1
2018-03-26T08:48:05.612Z,5.2
2018-03-26T08:49:08.037Z,5.2
2018-03-26T08:50:10.598Z,5.2
2018-03-26T08:51:12.901Z,5.3
2018-03-26T08:52:15.331Z,5.1
2018-03-26T08:53:18.042Z,5.2
2018-03-26T08:54:20.475Z,5.2
2018-03-26T08:55:22.902Z,5.2
2018-03-26T08:56:25.334Z,5.3
2018-03-26T08:57:27.770Z,5.4
2018-03-26T08:58:30.195Z,5.3
2018-03-26T08:59:32.931Z,5.2
2018-03-26T09:00:35.647Z,5.2
2018-03-26T09:01:38.357Z,5.3
2018-03-26T09:02:40.787Z,4.9
2018-03-26T09:03:43.223Z,4.9
2018-03-26T09:04:45.935Z,5
2018-03-26T09:05:48.370Z,5
2018-03-26T09:06:50.784Z,5
2018-03-26T09:07:53.225Z,5.1
2018-03-26T09:08:55.651Z,5.2
2018-03-26T09:09:58.088Z,5.3
2018-03-26T09:11:00.515Z,5.2
2018-03-26T09:12:02.944Z,5.1
2018-03-26T09:13:05.657Z,5
2018-03-26T09:14:08.106Z,4.9
2018-03-26T09:15:10.535Z,4.7
2018-03-26T09:16:12.963Z,4.8
2018-03-26T09:17:15.682Z,4.8
2018-03-26T09:18:18.114Z,5
2018-03-26T09:19:20.545Z,4.9
2018-03-26T09:20:22.988Z,5.1
2018-03-26T09:21:25.696Z,5
2018-03-26T09:22:28.129Z,5.1
2018-03-26T09:23:30.842Z,5.2
2018-03-26T09:24:33.271Z,5
2018-03-26T09:25:35.691Z,4.8
2018-03-26T09:26:38.119Z,4.9
2018-03-26T09:27:40.549Z,4.8
2018-03-26T09:28:42.974Z,4.9
2018-03-26T09:29:45.403Z,4.8
2018-03-26T09:30:48.146Z,4.8
2018-03-26T09:31:50.567Z,4.8
2018-03-26T09:32:53.277Z,5
2018-03-26T09:33:55.705Z,5
2018-03-26T09:34:58.429Z,4.9
2018-03-26T09:36:00.853Z,4.9
2018-03-26T09:37:03.280Z,5.1
2018-03-26T09:38:05.991Z,5
2018-03-26T09:39:08.421Z,5.2
2018-03-26T09:40:10.864Z,5.1
2018-03-26T09:41:13.286Z,5
2018-03-26T09:42:15.998Z,5.1
2018-03-26T09:43:18.434Z,5.2
2018-03-26T09:44:20.865Z,5.1
2018-03-26T09:45:23.304Z,5
2018-03-26T09:46:25.734Z,5.1
2018-03-26T09:47:28.145Z,5.1
2018-03-26T09:48:30.579Z,5.1
2018-03-26T09:49:33.300Z,5.2
2018-03-26T09:50:35.730Z,5.1
2018-03-26T09:51:38.155Z,5.1
2018-03-26T09:52:41.160Z,5
2018-03-26T09:53:43.584Z,5.1
2018-03-26T09:54:46.022Z,4.9
2018-03-26T09:55:48.452Z,5
2018-03-26T09:56:50.876Z,5
2018-03-26T09:57:53.904Z,5.2
2018-03-26T09:58:56.337Z,5.1
2018-03-26T09:59:58.764Z,5
2018-03-26T10:01:01.184Z,4.9
2018-03-26T10:02:03.908Z,4.8
2018-03-26T10:03:06.609Z,4.8
2018-03-26T10:04:09.040Z,4.9
2018-03-26T10:05:11.476Z,4.8
2018-03-26T10:06:13.891Z,4.8
2018-03-26T10:07:16.325Z,4.8
2018-03-26T10:08:19.056Z,5
2018-03-26T10:09:21.488Z,5
2018-03-26T10:10:24.233Z,5
2018-03-26T10:11:26.669Z,4.9
2018-03-26T10:12:29.084Z,4.9
2018-03-26T10:13:31.522Z,4.9
2018-03-26T10:14:33.951Z,5
2018-03-26T10:15:36.382Z,5
2018-03-26T10:16:39.100Z,5
2018-03-26T10:17:41.527Z,5
2018-03-26T10:18:43.953Z,4.9
2018-03-26T10:19:46.415Z,4.9
2018-03-26T10:20:48.803Z,4.8
2018-03-26T10:21:51.231Z,5
2018-03-26T10:22:53.670Z,5
2018-03-26T10:23:56.106Z,5
2018-03-26T10:24:58.526Z,5
2018-03-26T10:26:00.963Z,4.9
2018-03-26T10:27:03.392Z,4.8
2018-03-26T10:28:05.818Z,4.7
2018-03-26T10:29:08.531Z,4.6
2018-03-26T10:30:10.970Z,4.8
2018-03-26T10:31:13.731Z,4.9
2018-03-26T10:32:16.115Z,5
2018-03-26T10:33:18.838Z,5
2018-03-26T10:34:21.276Z,4.9
2018-03-26T10:35:23.983Z,4.8
2018-03-26T10:36:26.421Z,4.8
2018-03-26T10:37:29.134Z,4.9
2018-03-26T10:38:31.939Z,5
2018-03-26T10:39:34.321Z,4.8
2018-03-26T10:40:36.749Z,4.8
2018-03-26T10:41:39.171Z,4.8
2018-03-26T10:42:41.597Z,4.7
2018-03-26T10:43:44.023Z,4.8
2018-03-26T10:44:46.760Z,4.8
2018-03-26T10:45:49.178Z,4.9
2018-03-26T10:46:51.601Z,4.8
2018-03-26T10:47:54.319Z,4.7
2018-03-26T10:48:56.751Z,4.6
2018-03-26T10:49:59.177Z,4.6
2018-03-26T10:51:01.658Z,4.6
2018-03-26T10:52:04.376Z,4.5
2018-03-26T10:53:06.814Z,4.5
2018-03-26T10:54:09.238Z,4.2
2018-03-26T10:55:11.957Z,4.2
2018-03-26T10:56:14.668Z,4.3
2018-03-26T10:57:17.084Z,4.3
2018-03-26T10:58:19.522Z,4.3
2018-03-26T10:59:21.946Z,4.4
2018-03-26T11:00:24.441Z,4.3
2018-03-26T11:01:26.810Z,4.2
2018-03-26T11:02:29.242Z,4.2
2018-03-26T11:03:31.671Z,4.2
2018-03-26T11:04:34.101Z,4.2
2018-03-26T11:05:36.563Z,4.3
2018-03-26T11:06:38.950Z,4.1
2018-03-26T11:07:41.662Z,4.1
2018-03-26T11:08:44.093Z,4.4
2018-03-26T11:09:46.796Z,4.2
2018-03-26T11:10:49.242Z,4.2
2018-03-26T11:11:51.937Z,4.2
2018-03-26T11:12:54.384Z,4
2018-03-26T11:13:56.805Z,4
2018-03-26T11:14:59.512Z,4.1
2018-03-26T11:16:01.935Z,4.2
2018-03-26T11:17:04.366Z,3.8
2018-03-26T11:18:06.799Z,3.8
2018-03-26T11:19:09.526Z,3.9
2018-03-26T11:20:11.942Z,4
2018-03-26T11:21:14.375Z,4
2018-03-26T11:22:16.815Z,4
2018-03-26T11:23:19.243Z,3.9
2018-03-26T11:24:21.672Z,4
2018-03-26T11:25:24.101Z,4
2018-03-26T11:26:26.836Z,4
2018-03-26T11:27:29.237Z,4.1
2018-03-26T11:28:31.950Z,3.9
2018-03-26T11:29:34.383Z,3.8
2018-03-26T11:30:36.819Z,3.8
2018-03-26T11:31:40.108Z,3.7
2018-03-26T11:32:42.543Z,3.8
2018-03-26T11:33:44.967Z,3.8
2018-03-26T11:34:47.427Z,3.7
2018-03-26T11:35:49.854Z,3.7
2018-03-26T11:36:52.275Z,3.6
2018-03-26T11:37:54.710Z,3.7
2018-03-26T11:38:57.425Z,3.6
2018-03-26T11:39:59.859Z,3.7
2018-03-26T11:41:02.282Z,3.6
2018-03-26T11:42:04.720Z,3.6
2018-03-26T11:43:07.432Z,3.6
2018-03-26T11:44:09.872Z,3.7
2018-03-26T11:45:12.596Z,3.8
2018-03-26T11:46:15.022Z,3.9
2018-03-26T11:47:17.462Z,4
2018-03-26T11:48:19.893Z,4
2018-03-26T11:49:22.322Z,4
2018-03-26T11:50:25.333Z,4.1
2018-03-26T11:51:27.753Z,4.1
2018-03-26T11:52:30.178Z,4.1
2018-03-26T11:53:32.817Z,4
2018-03-26T11:54:35.243Z,4.1
2018-03-26T11:55:37.666Z,4.2
2018-03-26T11:56:40.103Z,4.2
2018-03-26T11:57:42.532Z,4.3
2018-03-26T11:58:44.954Z,4.3
2018-03-26T11:59:47.379Z,4.2
2018-03-26T12:00:49.833Z,4.3
2018-03-26T12:01:52.316Z,4.4
2018-03-26T12:02:54.712Z,4.4
2018-03-26T12:03:57.435Z,4.4
2018-03-26T12:04:59.866Z,4.4
2018-03-26T12:06:02.301Z,4.4
2018-03-26T12:07:05.018Z,4.3
2018-03-26T12:08:07.443Z,4.3
2018-03-26T12:09:09.871Z,4.4
2018-03-26T12:10:12.309Z,4.4
2018-03-26T12:11:14.737Z,4.5
2018-03-26T12:12:17.514Z,4.4
2018-03-26T12:13:19.950Z,4.4
2018-03-26T12:14:22.378Z,4.5
2018-03-26T12:15:24.892Z,4.6
2018-03-26T12:16:27.412Z,4.6
2018-03-26T12:17:29.829Z,4.4
2018-03-26T12:18:32.260Z,4.4
2018-03-26T12:19:34.692Z,4.4
2018-03-26T12:20:37.149Z,4.3
2018-03-26T12:21:39.542Z,4.2
2018-03-26T12:22:41.973Z,4.2
2018-03-26T12:23:44.404Z,4.1
2018-03-26T12:24:46.842Z,4.1
2018-03-26T12:25:49.274Z,4.2
2018-03-26T12:26:51.699Z,4.3
2018-03-26T12:27:54.137Z,4.2
2018-03-26T12:28:56.576Z,4.2
2018-03-26T12:29:59.001Z,4.2
2018-03-26T12:31:01.432Z,4.2
2018-03-26T12:32:03.867Z,4.2
2018-03-26T12:33:06.286Z,4.2
2018-03-26T12:34:08.725Z,4.3
2018-03-26T12:35:11.152Z,4.2
2018-03-26T12:36:13.579Z,4.2
2018-03-26T12:37:16.301Z,4.1
2018-03-26T12:38:18.750Z,4.2
2018-03-26T12:39:21.160Z,4.3
2018-03-26T12:40:23.593Z,4.3
2018-03-26T12:41:26.023Z,4.2
2018-03-26T12:42:28.468Z,4.2
2018-03-26T12:43:30.905Z,4.2
2018-03-26T12:44:33.342Z,4.1
2018-03-26T12:45:35.765Z,4.2
2018-03-26T12:46:38.477Z,4.2
2018-03-26T12:47:40.928Z,4.2
2018-03-26T12:48:43.334Z,4.3
2018-03-26T12:49:46.033Z,4.2
2018-03-26T12:50:48.476Z,4.1
2018-03-26T12:51:50.894Z,4.2
2018-03-26T12:52:53.333Z,4.2
2018-03-26T12:53:55.765Z,4.2
2018-03-26T12:54:58.770Z,4.1
2018-03-26T12:56:01.202Z,4
2018-03-26T12:57:03.919Z,4
2018-03-26T12:58:06.364Z,4.1
2018-03-26T12:59:08.790Z,4
2018-03-26T13:00:11.211Z,4.1
2018-03-26T13:01:13.644Z,4.2
2018-03-26T13:02:16.067Z,4.3
2018-03-26T13:03:18.495Z,4.4
2018-03-26T13:04:20.926Z,4.3
2018-03-26T13:05:23.345Z,4.4
2018-03-26T13:06:25.784Z,4.3
2018-03-26T13:07:28.218Z,4.4
2018-03-26T13:08:30.646Z,4.4
2018-03-26T13:09:33.096Z,4.3
2018-03-26T13:10:35.524Z,4.2
2018-03-26T13:11:37.952Z,4.2
2018-03-26T13:12:40.381Z,4.3
2018-03-26T13:13:42.816Z,4.3
2018-03-26T13:14:45.231Z,4.3
2018-03-26T13:15:47.660Z,4.4
2018-03-26T13:16:50.083Z,4.3
2018-03-26T13:17:52.508Z,4.3
2018-03-26T13:18:54.946Z,4.2
2018-03-26T13:19:57.661Z,4.2
2018-03-26T13:21:00.092Z,4.2
2018-03-26T13:22:02.806Z,4.2
2018-03-26T13:23:05.524Z,4
2018-03-26T13:24:07.946Z,4.2
2018-03-26T13:25:10.660Z,4.1
2018-03-26T13:26:13.089Z,4.1
2018-03-26T13:27:15.518Z,4
2018-03-26T13:28:17.948Z,4
2018-03-26T13:29:20.677Z,4.1
2018-03-26T13:30:23.116Z,4
2018-03-26T13:31:25.530Z,4
2018-03-26T13:32:27.978Z,4
2018-03-26T13:33:30.684Z,4.1
2018-03-26T13:34:33.118Z,4.1
2018-03-26T13:35:35.560Z,4.1
2018-03-26T13:36:38.270Z,4
2018-03-26T13:37:40.986Z,4.1
2018-03-26T13:38:43.416Z,4.1
2018-03-26T13:39:46.120Z,4.1
2018-03-26T13:40:48.553Z,4
2018-03-26T13:41:51.311Z,4
2018-03-26T13:42:53.703Z,4
2018-03-26T13:43:56.132Z,4
2018-03-26T13:44:58.557Z,4
2018-03-26T13:46:00.985Z,4
2018-03-26T13:47:03.407Z,4
2018-03-26T13:48:05.839Z,4
2018-03-26T13:49:08.558Z,4
2018-03-26T13:50:11.001Z,3.9
2018-03-26T13:51:13.418Z,3.8
2018-03-26T13:52:16.149Z,3.9
2018-03-26T13:53:18.568Z,4
2018-03-26T13:54:21.008Z,4
2018-03-26T13:55:23.435Z,4.1
2018-03-26T13:56:26.446Z,4
2018-03-26T13:57:29.163Z,4
2018-03-26T13:58:31.589Z,4
2018-03-26T13:59:34.018Z,4
2018-03-26T14:00:36.446Z,3.9
2018-03-26T14:01:38.882Z,3.9
2018-03-26T14:02:41.304Z,4
2018-03-26T14:03:43.734Z,3.9
2018-03-26T14:04:46.164Z,3.9
2018-03-26T14:05:48.883Z,3.9
2018-03-26T14:06:51.610Z,3.9
2018-03-26T14:07:54.070Z,3.9
2018-03-26T14:08:56.456Z,3.9
2018-03-26T14:09:58.882Z,3.7
2018-03-26T14:11:01.305Z,3.8
2018-03-26T14:12:04.026Z,3.7
2018-03-26T14:13:06.458Z,3.8
2018-03-26T14:14:08.883Z,3.7
2018-03-26T14:15:11.312Z,3.7
2018-03-26T14:16:13.751Z,3.7
2018-03-26T14:17:16.469Z,3.6
2018-03-26T14:18:18.901Z,3.6
2018-03-26T14:19:21.336Z,3.8
2018-03-26T14:20:23.764Z,3.9
2018-03-26T14:21:26.484Z,3.9
2018-03-26T14:22:28.917Z,3.9
2018-03-26T14:23:31.328Z,4
2018-03-26T14:24:34.051Z,4.1
2018-03-26T14:25:36.476Z,4
2018-03-26T14:26:38.914Z,4
2018-03-26T14:27:41.337Z,4
2018-03-26T14:28:44.065Z,4.1
2018-03-26T14:29:46.490Z,4.1
2018-03-26T14:30:48.904Z,4.3
2018-03-26T14:31:51.627Z,4.3
2018-03-26T14:32:54.352Z,4.4
2018-03-26T14:33:56.763Z,4.2
2018-03-26T14:34:59.198Z,4.3